Caceres, Spain
Current Conditions -  °F | °C
As of 9:00 PM on Sunday 28 Dec 2014 (Local Time) from LEBZ Reporting Station
Few Clouds Few Clouds  
Wind Chill: 45°   Ceiling: Unl
Heat Index: 48°   Visibility: 6mi
Dew Point: 46°   Wind: 7mph
Humidity: 93%   Direction: 280°W
Pressure: 30.21"   Gusts: NA
Location:  39.48°N, 6.37°W
Report Text: LEBZ 282000Z 28006KT 9999 FEW045 09/08 Q1023
Loading
Personal Weather Stations






























Interactive Weather Map New forecast layout! Learn more

10-Day Weather Forecast

Advertisements
Track Severe Weather on mobile